Time;durP1;ratioP1;P1;durP2;ratioP2;P2;SDS_P1;SDS_P2;PMS_P1;PMS_P2;Temp;Humidity;BMP_temperature;BMP_pressure;BME280_temperature;BME280_humidity;BME280_pressure;Samples;Min_cycle;Max_cycle;Signal;HPM_P1;HPM_P2
2023/05/28 00:00:03;;;;;;;2.72;1.27;;;10.50;99.90;;;;;;5060642;28;20017;-59
2023/05/28 00:02:30;;;;;;;3.45;1.25;;;10.60;99.90;;;;;;5059748;28;20362;-59
2023/05/28 00:04:58;;;;;;;4.47;1.13;;;10.80;99.90;;;;;;5058011;28;20504;-60
2023/05/28 00:07:28;;;;;;;2.17;1.00;;;11.00;99.90;;;;;;5056805;28;20028;-59
2023/05/28 00:09:56;;;;;;;4.07;1.38;;;11.10;99.90;;;;;;5057766;28;20013;-59
2023/05/28 00:12:24;;;;;;;2.50;1.10;;;11.20;99.90;;;;;;5053872;28;20032;-57
2023/05/28 00:14:52;;;;;;;2.95;1.27;;;11.40;99.90;;;;;;5060776;28;20028;-59
2023/05/28 00:17:20;;;;;;;1.95;0.88;;;11.60;99.90;;;;;;5066539;28;20389;-59
2023/05/28 00:19:48;;;;;;;2.60;1.08;;;11.80;99.90;;;;;;5061279;28;20052;-59
2023/05/28 00:22:15;;;;;;;3.60;1.13;;;12.00;99.90;;;;;;5059861;28;20031;-59
2023/05/28 00:24:43;;;;;;;2.38;1.02;;;12.20;99.90;;;;;;5052201;28;20025;-59
2023/05/28 00:27:10;;;;;;;2.17;0.98;;;12.40;99.90;;;;;;5058021;28;20520;-53
2023/05/28 00:29:38;;;;;;;1.77;0.80;;;12.60;99.90;;;;;;5059176;28;20040;-55
2023/05/28 00:32:05;;;;;;;1.60;0.77;;;12.90;99.90;;;;;;5059055;28;20033;-63
2023/05/28 00:34:33;;;;;;;1.63;0.60;;;13.10;99.90;;;;;;5064238;28;20024;-61
2023/05/28 00:37:00;;;;;;;0.70;0.50;;;13.40;99.90;;;;;;5061380;28;20121;-61
2023/05/28 00:39:28;;;;;;;2.10;0.80;;;13.70;99.90;;;;;;5052340;28;20032;-61
2023/05/28 00:42:07;;;;;;;2.17;0.77;;;13.90;99.90;;;;;;5059699;28;20024;-60
2023/05/28 00:44:35;;;;;;;0.90;0.70;;;14.10;99.90;;;;;;5058720;28;20016;-60
2023/05/28 00:47:03;;;;;;;0.98;0.47;;;14.30;99.90;;;;;;5055484;28;20099;-61
2023/05/28 00:49:32;;;;;;;2.45;0.80;;;14.60;99.90;;;;;;5055131;28;20035;-60
2023/05/28 00:52:01;;;;;;;1.38;0.50;;;14.80;99.90;;;;;;5054268;28;20109;-63
2023/05/28 00:54:30;;;;;;;2.60;1.02;;;15.00;99.90;;;;;;5070704;28;20498;-64
2023/05/28 00:56:59;;;;;;;0.90;0.45;;;15.20;99.90;;;;;;5078486;28;20040;-65
2023/05/28 00:59:28;;;;;;;1.75;0.70;;;15.40;96.70;;;;;;5053837;28;20032;-64
2023/05/28 01:01:55;;;;;;;2.00;1.08;;;15.60;97.40;;;;;;5076116;28;20025;-63
2023/05/28 01:04:24;;;;;;;2.55;0.50;;;15.80;95.50;;;;;;5076053;28;20034;-63
2023/05/28 01:06:52;;;;;;;2.72;0.47;;;16.10;93.90;;;;;;5073624;28;20029;-65
2023/05/28 01:09:19;;;;;;;5.38;0.55;;;16.30;93.60;;;;;;5074888;28;20477;-65
2023/05/28 01:11:51;;;;;;;2.00;0.77;;;16.50;92.00;;;;;;5074351;28;20020;-67
2023/05/28 01:14:20;;;;;;;2.67;0.57;;;16.60;91.70;;;;;;5074871;28;20142;-64
2023/05/28 01:16:51;;;;;;;2.40;0.90;;;16.80;89.80;;;;;;5059994;28;20154;-63
2023/05/28 01:19:27;;;;;;;1.65;0.57;;;16.70;85.90;;;;;;5072291;28;20029;-59
2023/05/28 01:22:03;;;;;;;2.30;0.43;;;16.70;87.20;;;;;;5076365;28;20114;-57
2023/05/28 01:24:33;;;;;;;1.20;0.75;;;16.80;86.20;;;;;;5071396;28;20040;-57
2023/05/28 01:27:01;;;;;;;3.13;0.65;;;16.70;85.80;;;;;;5071880;28;20095;-58
2023/05/28 01:29:29;;;;;;;3.20;0.65;;;16.70;82.20;;;;;;5072986;28;20025;-57
2023/05/28 01:31:56;;;;;;;1.63;0.70;;;16.80;88.50;;;;;;5072694;28;20020;-55
2023/05/28 01:34:24;;;;;;;2.15;0.85;;;16.90;87.60;;;;;;5082293;28;20024;-60
2023/05/28 01:37:04;;;;;;;0.80;0.47;;;17.10;87.90;;;;;;5071997;28;20028;-59
2023/05/28 01:39:38;;;;;;;2.45;0.80;;;17.20;84.30;;;;;;5075933;28;20039;-61
2023/05/28 01:42:07;;;;;;;1.20;0.80;;;17.30;87.00;;;;;;5058226;28;20081;-57
2023/05/28 01:44:35;;;;;;;2.13;0.65;;;17.30;83.30;;;;;;5084296;28;20069;-58
2023/05/28 01:47:03;;;;;;;2.90;0.80;;;17.30;81.10;;;;;;5086632;28;20039;-58
2023/05/28 01:49:30;;;;;;;2.75;0.70;;;17.40;82.40;;;;;;5091130;28;20386;-58
2023/05/28 01:51:58;;;;;;;0.90;0.60;;;17.40;84.30;;;;;;5074645;28;20028;-58
2023/05/28 01:54:25;;;;;;;4.35;1.23;;;17.50;82.90;;;;;;5071083;28;20023;-58
2023/05/28 01:56:53;;;;;;;1.50;0.80;;;17.50;82.40;;;;;;5078247;28;20032;-56
2023/05/28 01:59:20;;;;;;;2.25;0.80;;;17.50;81.80;;;;;;5074805;28;20035;-56
2023/05/28 02:01:48;;;;;;;2.38;1.10;;;17.50;83.00;;;;;;5070904;28;20032;-59
2023/05/28 02:04:16;;;;;;;1.75;0.80;;;17.60;86.10;;;;;;5074396;28;20020;-58
2023/05/28 02:06:46;;;;;;;2.05;0.70;;;17.70;80.20;;;;;;5078257;28;20372;-58
2023/05/28 02:09:14;;;;;;;2.10;0.88;;;17.70;79.50;;;;;;5096048;28;20029;-58
2023/05/28 02:11:41;;;;;;;3.15;0.80;;;17.80;81.10;;;;;;5072221;28;20052;-58
2023/05/28 02:14:14;;;;;;;2.22;0.90;;;17.80;82.40;;;;;;5058626;28;20115;-58
2023/05/28 02:16:52;;;;;;;3.05;0.70;;;17.90;82.00;;;;;;5070853;28;20346;-58
2023/05/28 02:19:20;;;;;;;4.70;0.70;;;18.00;77.10;;;;;;5071424;28;20020;-59
2023/05/28 02:21:47;;;;;;;0.98;0.60;;;18.00;80.20;;;;;;5057016;28;20039;-58
2023/05/28 02:24:15;;;;;;;1.13;0.50;;;18.00;78.60;;;;;;5086072;28;20028;-58
2023/05/28 02:26:42;;;;;;;1.83;0.77;;;17.90;80.00;;;;;;5087826;28;20052;-58
2023/05/28 02:29:10;;;;;;;1.25;0.68;;;17.90;81.50;;;;;;5054603;28;20016;-57
2023/05/28 02:31:37;;;;;;;1.70;0.70;;;17.90;80.20;;;;;;5073704;28;20389;-56
2023/05/28 02:34:05;;;;;;;2.25;0.82;;;17.90;80.70;;;;;;5070314;28;20496;-58
2023/05/28 02:36:32;;;;;;;1.05;0.70;;;17.90;80.30;;;;;;5062432;28;20028;-58
2023/05/28 02:39:00;;;;;;;1.45;0.70;;;18.00;77.90;;;;;;5082397;28;20029;-58
2023/05/28 02:41:28;;;;;;;2.17;0.60;;;18.10;77.50;;;;;;5072033;28;20033;-59
2023/05/28 02:43:55;;;;;;;1.77;0.50;;;18.10;79.10;;;;;;5073371;28;20031;-61
2023/05/28 02:46:23;;;;;;;1.13;0.80;;;18.10;79.50;;;;;;5073238;28;20473;-61
2023/05/28 02:48:50;;;;;;;1.83;0.60;;;18.10;78.80;;;;;;5078534;28;20491;-60
2023/05/28 02:51:18;;;;;;;8.73;5.18;;;18.10;74.80;;;;;;5072741;28;20028;-61
2023/05/28 02:53:46;;;;;;;9.18;4.15;;;18.10;76.00;;;;;;5070476;28;20090;-59
2023/05/28 02:56:13;;;;;;;1.85;0.73;;;18.20;76.10;;;;;;5066310;28;20020;-62
2023/05/28 02:58:41;;;;;;;0.60;0.55;;;18.30;78.90;;;;;;5084391;28;20674;-62
2023/05/28 03:01:08;;;;;;;2.78;0.80;;;18.40;78.40;;;;;;5077514;28;20017;-63
2023/05/28 03:03:36;;;;;;;1.77;0.90;;;18.40;77.90;;;;;;5077239;28;20225;-63
2023/05/28 03:06:03;;;;;;;2.35;1.08;;;18.40;75.00;;;;;;5084389;28;20021;-63
2023/05/28 03:08:31;;;;;;;2.55;1.33;;;18.40;76.20;;;;;;5064532;28;20024;-62
2023/05/28 03:10:58;;;;;;;2.90;1.38;;;18.30;72.70;;;;;;5076690;28;20017;-61
2023/05/28 03:13:26;;;;;;;0.75;0.50;;;18.30;74.60;;;;;;5077648;28;20024;-61
2023/05/28 03:15:53;;;;;;;0.45;0.30;;;18.10;71.50;;;;;;5079869;28;20027;-61
2023/05/28 03:18:21;;;;;;;0.20;0.20;;;18.00;72.80;;;;;;5077765;28;20040;-61
2023/05/28 03:20:48;;;;;;;2.28;0.73;;;17.90;75.10;;;;;;5085194;28;20032;-61
2023/05/28 03:23:16;;;;;;;2.33;1.23;;;17.80;75.50;;;;;;5079493;28;20021;-62
2023/05/28 03:25:43;;;;;;;0.65;0.43;;;17.90;75.50;;;;;;5080529;28;20078;-61
2023/05/28 03:28:11;;;;;;;2.50;1.10;;;17.80;73.30;;;;;;5075619;28;20032;-61
2023/05/28 03:30:38;;;;;;;1.50;0.32;;;17.80;76.00;;;;;;5078082;28;20074;-61
2023/05/28 03:33:06;;;;;;;2.20;0.88;;;17.90;75.60;;;;;;5076597;28;20069;-61
2023/05/28 03:35:33;;;;;;;2.00;0.50;;;17.90;75.70;;;;;;5062911;28;20103;-61
2023/05/28 03:38:00;;;;;;;4.10;1.05;;;17.80;74.50;;;;;;5079187;28;20430;-62
2023/05/28 03:40:28;;;;;;;0.82;0.40;;;17.60;74.50;;;;;;5088333;28;20020;-61
2023/05/28 03:42:56;;;;;;;1.42;1.08;;;17.60;74.70;;;;;;5081148;28;20052;-61
2023/05/28 03:45:23;;;;;;;0.35;0.30;;;17.40;75.30;;;;;;5075173;28;20473;-60
2023/05/28 03:47:50;;;;;;;0.45;0.20;;;17.30;76.30;;;;;;5076732;28;20476;-61
2023/05/28 03:50:18;;;;;;;0.52;0.15;;;17.20;77.20;;;;;;5076487;28;20028;-61
2023/05/28 03:52:45;;;;;;;2.65;0.68;;;17.20;78.00;;;;;;5084474;28;20048;-61
2023/05/28 03:55:13;;;;;;;0.65;0.40;;;17.30;76.50;;;;;;5087357;28;20025;-61
2023/05/28 03:57:40;;;;;;;2.13;0.57;;;17.20;74.60;;;;;;5079535;28;20038;-61
2023/05/28 04:00:09;;;;;;;5.82;1.70;;;17.20;77.00;;;;;;5082926;28;20029;-60
2023/05/28 04:02:37;;;;;;;4.93;0.68;;;17.10;76.10;;;;;;5082807;28;20016;-60
2023/05/28 04:05:04;;;;;;;4.43;1.02;;;17.10;76.90;;;;;;5078785;28;20483;-61
2023/05/28 04:07:32;;;;;;;2.25;0.63;;;17.00;78.40;;;;;;5088131;28;20020;-61
2023/05/28 04:09:59;;;;;;;0.22;0.20;;;17.10;76.90;;;;;;5091214;28;20413;-61
2023/05/28 04:12:27;;;;;;;2.63;1.20;;;17.10;76.30;;;;;;5059975;28;20035;-61
2023/05/28 04:14:55;;;;;;;3.03;1.10;;;17.10;76.50;;;;;;5089089;28;20021;-61
2023/05/28 04:17:23;;;;;;;1.83;0.88;;;17.10;76.40;;;;;;5073494;28;20081;-62
2023/05/28 04:19:54;;;;;;;0.70;0.35;;;17.10;79.20;;;;;;5075028;28;20493;-60
2023/05/28 04:22:23;;;;;;;3.00;0.30;;;17.10;77.90;;;;;;5063904;28;20044;-60
2023/05/28 04:24:55;;;;;;;1.65;0.70;;;17.10;77.70;;;;;;5058200;28;20029;-60
2023/05/28 04:27:23;;;;;;;0.35;0.20;;;17.10;76.30;;;;;;5073170;28;20021;-60
2023/05/28 04:29:52;;;;;;;0.75;0.30;;;16.90;75.40;;;;;;5076389;28;20048;-62
2023/05/28 04:32:20;;;;;;;1.65;0.35;;;16.70;77.80;;;;;;5089947;28;20115;-59
2023/05/28 04:34:47;;;;;;;0.55;0.40;;;16.50;77.70;;;;;;5079182;28;20623;-60
2023/05/28 04:37:16;;;;;;;0.95;0.40;;;16.50;77.60;;;;;;5088870;28;20028;-60
2023/05/28 04:39:43;;;;;;;0.73;0.40;;;16.40;78.40;;;;;;5079644;28;20478;-59
2023/05/28 04:42:16;;;;;;;3.65;1.40;;;16.40;79.70;;;;;;5080507;28;20023;-60
2023/05/28 04:44:44;;;;;;;6.35;1.10;;;16.40;79.80;;;;;;5080457;28;20016;-60
2023/05/28 04:47:13;;;;;;;0.93;0.40;;;16.40;80.20;;;;;;5076639;28;20024;-60
2023/05/28 04:49:43;;;;;;;3.22;1.27;;;16.40;79.90;;;;;;5080793;28;20203;-61
2023/05/28 04:52:10;;;;;;;4.03;2.53;;;16.60;79.60;;;;;;5080090;28;20044;-59
2023/05/28 04:54:38;;;;;;;0.35;0.30;;;16.70;78.90;;;;;;5091586;28;20042;-61
2023/05/28 04:57:05;;;;;;;1.85;1.10;;;16.80;79.20;;;;;;5077518;28;20039;-61
2023/05/28 04:59:34;;;;;;;3.40;1.75;;;16.90;78.00;;;;;;5081619;28;20464;-62
2023/05/28 05:02:03;;;;;;;1.27;0.50;;;17.00;77.00;;;;;;5052784;28;20032;-61
2023/05/28 05:04:31;;;;;;;2.05;0.85;;;17.00;78.20;;;;;;5074586;28;20024;-61
2023/05/28 05:06:59;;;;;;;2.17;0.70;;;17.00;78.10;;;;;;5056900;28;20044;-61
2023/05/28 05:09:27;;;;;;;0.30;0.30;;;16.90;78.60;;;;;;5078513;28;20032;-61
2023/05/28 05:11:54;;;;;;;1.63;0.60;;;16.80;78.50;;;;;;5071448;28;20119;-61
2023/05/28 05:14:22;;;;;;;2.03;0.70;;;16.60;77.50;;;;;;5096540;28;20016;-60
2023/05/28 05:16:49;;;;;;;2.00;0.40;;;16.40;77.20;;;;;;5081487;28;20544;-59
2023/05/28 05:19:17;;;;;;;2.60;0.88;;;16.20;79.60;;;;;;5074176;28;20040;-59
2023/05/28 05:21:44;;;;;;;2.47;1.10;;;16.10;80.00;;;;;;5081576;28;20100;-60
2023/05/28 05:24:12;;;;;;;3.92;1.70;;;15.90;80.70;;;;;;5075383;28;20024;-59
2023/05/28 05:26:39;;;;;;;3.63;2.13;;;15.70;82.80;;;;;;5057803;28;20056;-60
2023/05/28 05:29:07;;;;;;;0.80;0.60;;;15.40;85.70;;;;;;5074704;28;20029;-60
2023/05/28 05:31:34;;;;;;;3.40;0.90;;;15.20;84.80;;;;;;5073944;28;20028;-59
2023/05/28 05:34:02;;;;;;;5.85;2.38;;;15.10;85.10;;;;;;5073219;28;20063;-60
2023/05/28 05:36:30;;;;;;;2.90;1.27;;;15.00;86.50;;;;;;5076308;28;20099;-61
2023/05/28 05:38:58;;;;;;;11.90;5.35;;;14.90;86.10;;;;;;5073873;28;20081;-60
2023/05/28 05:41:26;;;;;;;10.43;4.80;;;14.90;87.50;;;;;;5060668;28;20028;-60
2023/05/28 05:43:53;;;;;;;4.88;1.48;;;14.80;88.30;;;;;;5078046;28;20029;-60
2023/05/28 05:46:21;;;;;;;14.18;6.45;;;14.80;88.60;;;;;;5057904;28;20024;-61
2023/05/28 05:48:49;;;;;;;10.30;6.25;;;14.70;89.10;;;;;;5057837;28;20504;-59
2023/05/28 05:51:16;;;;;;;10.52;4.65;;;14.60;90.20;;;;;;5079830;28;20135;-60
2023/05/28 05:53:44;;;;;;;4.88;2.83;;;14.60;90.50;;;;;;5060220;28;20043;-60
2023/05/28 05:56:12;;;;;;;11.52;4.90;;;14.60;91.40;;;;;;5054060;28;20086;-61
2023/05/28 05:58:39;;;;;;;5.60;2.08;;;14.60;91.50;;;;;;5079413;28;20035;-60
2023/05/28 06:01:07;;;;;;;3.00;1.65;;;14.50;91.90;;;;;;5079572;28;20025;-60
2023/05/28 06:03:35;;;;;;;5.78;3.22;;;14.50;92.20;;;;;;5079079;28;20031;-60
2023/05/28 06:06:02;;;;;;;7.20;2.80;;;14.40;92.60;;;;;;5074168;28;20024;-60
2023/05/28 06:08:30;;;;;;;7.25;2.85;;;14.30;92.70;;;;;;5079585;28;20032;-60
2023/05/28 06:10:57;;;;;;;4.90;1.80;;;14.30;93.40;;;;;;5083034;28;20112;-60
2023/05/28 06:13:25;;;;;;;5.57;2.85;;;14.20;94.30;;;;;;5084103;28;20020;-61
2023/05/28 06:15:53;;;;;;;2.10;1.10;;;14.10;94.90;;;;;;5070807;28;20040;-60
2023/05/28 06:18:21;;;;;;;3.95;1.85;;;14.10;95.30;;;;;;5072479;28;20044;-60
2023/05/28 06:20:49;;;;;;;5.75;1.88;;;14.00;95.80;;;;;;5096502;28;20095;-60
2023/05/28 06:23:17;;;;;;;3.47;0.80;;;13.90;96.80;;;;;;5083649;28;20036;-60
2023/05/28 06:25:44;;;;;;;1.88;0.80;;;13.80;97.20;;;;;;5071401;28;20017;-60
2023/05/28 06:28:12;;;;;;;1.95;0.75;;;13.70;97.10;;;;;;5072787;28;20085;-60
2023/05/28 06:30:40;;;;;;;1.42;0.93;;;13.70;97.40;;;;;;5083487;28;20031;-60
2023/05/28 06:33:08;;;;;;;1.25;0.75;;;13.60;97.60;;;;;;5060825;28;20027;-60
2023/05/28 06:35:36;;;;;;;2.95;1.50;;;13.50;98.50;;;;;;5064388;28;20035;-60
2023/05/28 06:38:04;;;;;;;6.68;2.30;;;13.40;99.00;;;;;;5073170;28;20061;-60
2023/05/28 06:40:31;;;;;;;3.83;2.28;;;13.30;99.90;;;;;;5054163;28;20095;-59
2023/05/28 06:43:00;;;;;;;4.90;2.47;;;13.20;99.90;;;;;;5055245;28;20025;-59
2023/05/28 06:45:28;;;;;;;5.47;2.45;;;13.20;99.90;;;;;;5079426;28;20092;-61
2023/05/28 06:47:56;;;;;;;2.65;1.35;;;13.10;99.90;;;;;;5071526;28;20150;-61
2023/05/28 06:50:23;;;;;;;3.58;1.30;;;13.00;99.90;;;;;;5077823;28;20028;-61
2023/05/28 06:52:51;;;;;;;1.85;1.00;;;12.90;99.90;;;;;;5074693;28;20093;-60
2023/05/28 06:55:18;;;;;;;2.78;1.23;;;12.80;99.90;;;;;;5072774;28;20017;-63
2023/05/28 06:57:46;;;;;;;2.28;1.08;;;12.60;99.90;;;;;;5081279;28;20040;-61
2023/05/28 07:00:16;;;;;;;5.03;1.08;;;12.50;99.90;;;;;;5089238;28;20660;-61
2023/05/28 07:02:45;;;;;;;15.90;10.98;;;12.30;99.90;;;;;;5077617;28;20557;-61
2023/05/28 07:05:13;;;;;;;37.47;21.10;;;12.10;99.90;;;;;;5074621;28;20029;-61
2023/05/28 07:07:40;;;;;;;6.65;4.03;;;11.90;99.90;;;;;;5073350;28;20029;-61
2023/05/28 07:10:09;;;;;;;2.92;1.38;;;11.70;99.90;;;;;;5080410;28;20175;-62
2023/05/28 07:12:38;;;;;;;3.03;1.15;;;11.50;99.90;;;;;;5067489;28;20035;-61
2023/05/28 07:15:06;;;;;;;1.48;0.90;;;11.40;99.90;;;;;;5089555;28;20099;-61
2023/05/28 07:17:34;;;;;;;2.22;0.93;;;11.20;99.90;;;;;;5088609;28;20036;-60
2023/05/28 07:20:03;;;;;;;1.80;0.77;;;11.10;99.90;;;;;;5084753;28;20029;-61
2023/05/28 07:22:31;;;;;;;1.90;0.90;;;11.10;99.90;;;;;;5070302;28;20020;-62
2023/05/28 07:24:58;;;;;;;2.05;1.10;;;11.00;99.90;;;;;;5081400;28;20024;-60
2023/05/28 07:27:26;;;;;;;2.65;0.98;;;10.90;99.90;;;;;;5077360;28;20036;-60
2023/05/28 07:29:54;;;;;;;2.10;1.17;;;10.90;99.90;;;;;;5069404;28;20024;-61
2023/05/28 07:32:21;;;;;;;4.55;0.88;;;10.80;99.90;;;;;;5082346;28;20054;-60
2023/05/28 07:34:49;;;;;;;1.98;0.90;;;10.80;99.90;;;;;;5080574;28;20074;-60
2023/05/28 07:37:16;;;;;;;2.65;1.10;;;10.70;99.90;;;;;;5080365;28;20051;-61
2023/05/28 07:39:43;;;;;;;2.50;1.20;;;10.70;99.90;;;;;;5086709;28;20377;-61
2023/05/28 07:42:11;;;;;;;3.33;1.58;;;10.60;99.90;;;;;;5088161;28;20024;-61
2023/05/28 07:44:39;;;;;;;6.20;2.25;;;10.50;99.90;;;;;;5071227;28;20387;-61
2023/05/28 07:47:07;;;;;;;8.77;3.88;;;10.50;99.90;;;;;;5091930;28;20099;-60
2023/05/28 07:49:34;;;;;;;12.32;5.35;;;10.50;99.90;;;;;;5093094;28;20023;-60
2023/05/28 07:52:01;;;;;;;13.45;6.65;;;10.50;99.90;;;;;;5067458;28;20481;-60
2023/05/28 07:54:30;;;;;;;13.85;6.07;;;10.50;99.90;;;;;;5091020;28;20423;-61
2023/05/28 07:57:00;;;;;;;11.68;4.20;;;10.40;99.90;;;;;;5092889;28;20024;-62
2023/05/28 07:59:28;;;;;;;8.05;4.13;;;10.40;99.90;;;;;;5092577;28;20462;-61
2023/05/28 08:01:55;;;;;;;6.15;3.63;;;10.40;99.90;;;;;;5089619;28;20099;-60
2023/05/28 08:04:23;;;;;;;9.35;4.22;;;10.50;99.90;;;;;;5072446;28;20685;-61
2023/05/28 08:06:50;;;;;;;7.28;3.60;;;10.40;99.90;;;;;;5067413;28;20063;-61
2023/05/28 08:09:18;;;;;;;11.18;4.75;;;10.40;99.90;;;;;;5088688;28;20028;-60
2023/05/28 08:11:45;;;;;;;10.57;4.07;;;10.40;99.90;;;;;;5083382;28;20435;-61
2023/05/28 08:14:13;;;;;;;9.50;4.80;;;10.40;99.90;;;;;;5087830;28;20397;-61
2023/05/28 08:16:41;;;;;;;10.05;6.20;;;10.30;99.90;;;;;;5054360;28;20029;-61
2023/05/28 08:19:09;;;;;;;8.10;4.85;;;10.20;99.90;;;;;;5072087;28;20032;-61
2023/05/28 08:21:36;;;;;;;9.82;6.30;;;10.10;99.90;;;;;;5083943;28;20381;-61
2023/05/28 08:24:03;;;;;;;14.13;6.78;;;10.00;99.90;;;;;;5076461;28;20028;-61
2023/05/28 08:26:31;;;;;;;17.38;8.75;;;10.00;99.90;;;;;;5092125;28;20062;-61
2023/05/28 08:28:58;;;;;;;14.15;7.40;;;9.90;99.90;;;;;;5092540;28;20031;-61
2023/05/28 08:31:26;;;;;;;12.63;6.88;;;9.80;99.90;;;;;;5089294;28;20495;-62
2023/05/28 08:33:53;;;;;;;11.52;6.00;;;9.70;99.90;;;;;;5072019;28;20074;-62
2023/05/28 08:36:21;;;;;;;14.55;6.22;;;9.70;99.90;;;;;;5079743;28;20044;-61
2023/05/28 08:38:48;;;;;;;10.30;5.25;;;9.60;99.90;;;;;;5085722;28;20036;-61
2023/05/28 08:41:16;;;;;;;9.10;4.40;;;9.50;99.90;;;;;;5062560;28;20021;-61
2023/05/28 08:43:44;;;;;;;11.57;5.15;;;9.50;99.90;;;;;;5056500;28;20036;-61
2023/05/28 08:46:12;;;;;;;11.57;4.35;;;9.50;99.90;;;;;;5080338;28;20024;-60
2023/05/28 08:48:42;;;;;;;8.70;4.90;;;9.40;99.90;;;;;;5075043;28;20027;-61
2023/05/28 08:51:11;;;;;;;10.10;4.70;;;9.40;99.90;;;;;;5064208;28;20077;-61
2023/05/28 08:53:46;;;;;;;11.40;5.75;;;9.30;99.90;;;;;;5071526;28;20053;-61
2023/05/28 08:56:14;;;;;;;11.55;6.43;;;9.30;99.90;;;;;;5062331;28;20024;-61
2023/05/28 08:58:43;;;;;;;11.68;5.65;;;9.30;99.90;;;;;;5082193;28;20108;-61
2023/05/28 09:01:10;;;;;;;12.65;5.60;;;9.30;99.90;;;;;;5084211;28;20024;-61
2023/05/28 09:03:40;;;;;;;9.05;4.60;;;9.20;99.90;;;;;;5079700;28;20054;-61
2023/05/28 09:06:08;;;;;;;10.70;4.70;;;9.20;99.90;;;;;;5075903;28;20115;-61
2023/05/28 09:08:36;;;;;;;14.77;7.30;;;9.20;99.90;;;;;;5079327;28;20020;-61
2023/05/28 09:11:11;;;;;;;14.35;7.07;;;9.20;99.90;;;;;;5084478;28;20442;-61
2023/05/28 09:13:46;;;;;;;17.52;8.70;;;9.10;99.90;;;;;;5086888;28;20028;-61
2023/05/28 09:16:20;;;;;;;;;;;9.00;99.90;;;;;;5072962;28;20021;-61
2023/05/28 09:18:51;;;;;;;25.17;10.93;;;9.00;99.90;;;;;;5084376;28;20044;-61
2023/05/28 09:21:21;;;;;;;26.20;11.15;;;9.00;99.90;;;;;;5082208;28;20052;-61
2023/05/28 09:23:52;;;;;;;22.90;9.40;;;8.90;99.90;;;;;;5062268;28;20484;-61
2023/05/28 09:26:20;;;;;;;20.25;8.90;;;8.80;99.90;;;;;;5083471;28;20036;-61
2023/05/28 09:28:51;;;;;;;17.65;8.50;;;8.80;99.90;;;;;;5071938;28;20104;-61
2023/05/28 09:31:19;;;;;;;20.60;8.95;;;8.60;99.90;;;;;;5077596;28;20468;-61
2023/05/28 09:33:47;;;;;;;24.52;9.32;;;8.60;99.90;;;;;;5087486;28;20024;-61
2023/05/28 09:36:18;;;;;;;20.60;8.93;;;8.50;99.90;;;;;;5087941;28;20401;-61
2023/05/28 09:38:45;;;;;;;21.58;9.23;;;8.40;99.90;;;;;;5063825;28;20054;-61
2023/05/28 09:41:24;;;;;;;20.25;8.27;;;8.30;99.90;;;;;;5073193;28;21060;-61
2023/05/28 09:44:02;;;;;;;18.88;8.95;;;8.20;99.90;;;;;;5079995;28;20486;-61
2023/05/28 09:46:35;;;;;;;13.05;6.95;;;8.10;99.90;;;;;;5075749;28;20031;-62
2023/05/28 09:49:04;;;;;;;16.48;6.80;;;8.10;99.90;;;;;;5076100;28;20020;-61
2023/05/28 09:51:32;;;;;;;11.40;5.18;;;8.10;99.90;;;;;;5061089;28;20080;-61
2023/05/28 09:54:03;;;;;;;10.82;5.43;;;8.00;99.90;;;;;;5070851;28;20535;-62
2023/05/28 09:56:32;;;;;;;14.48;6.72;;;8.00;99.90;;;;;;5067911;28;20025;-61
2023/05/28 09:59:02;;;;;;;10.38;5.43;;;7.90;99.90;;;;;;5076352;28;20036;-62
2023/05/28 10:02:11;;;;;;;13.50;5.72;;;7.90;99.90;;;;;;5067935;28;20017;-61
2023/05/28 10:04:40;;;;;;;12.57;5.65;;;7.80;99.90;;;;;;5056508;28;20062;-61
2023/05/28 10:07:10;;;;;;;8.98;4.28;;;7.80;99.90;;;;;;5078424;28;20086;-62
2023/05/28 10:09:39;;;;;;;11.05;5.13;;;7.80;99.90;;;;;;5057651;28;20053;-61
2023/05/28 10:12:13;;;;;;;9.70;4.18;;;7.90;99.90;;;;;;5086164;28;20489;-61
2023/05/28 10:14:41;;;;;;;12.25;5.25;;;7.90;99.90;;;;;;5087834;28;20023;-61
2023/05/28 10:17:10;;;;;;;10.68;4.82;;;7.90;99.90;;;;;;5063378;28;20090;-61
2023/05/28 10:19:38;;;;;;;13.35;6.07;;;7.90;99.90;;;;;;5107958;28;20036;-62
2023/05/28 10:22:07;;;;;;;13.07;5.43;;;8.00;99.90;;;;;;5078162;28;20436;-61
2023/05/28 10:24:35;;;;;;;12.50;6.97;;;8.00;99.90;;;;;;5064262;28;20401;-61
2023/05/28 10:27:08;;;;;;;12.77;5.50;;;8.00;99.90;;;;;;5079742;28;20031;-61
2023/05/28 10:29:44;;;;;;;11.55;6.95;;;8.00;99.90;;;;;;5078555;28;20033;-61
2023/05/28 10:32:15;;;;;;;12.25;6.38;;;8.10;99.90;;;;;;5102514;28;20038;-61
2023/05/28 10:34:43;;;;;;;11.48;6.43;;;8.00;99.90;;;;;;5091486;28;20080;-61
2023/05/28 10:37:13;;;;;;;10.55;6.32;;;8.10;99.90;;;;;;5075035;28;20032;-61
2023/05/28 10:39:47;;;;;;;8.32;4.65;;;8.10;99.90;;;;;;5067161;28;20477;-61
2023/05/28 10:42:17;;;;;;;12.10;5.72;;;8.20;99.90;;;;;;5076781;28;20031;-62
2023/05/28 10:45:12;;;;;;;12.70;5.53;;;8.30;99.90;;;;;;5087513;28;20089;-61
2023/05/28 10:47:51;;;;;;;8.63;4.72;;;8.50;99.90;;;;;;5066799;28;20029;-61
2023/05/28 10:50:20;;;;;;;7.00;4.10;;;8.60;99.90;;;;;;5073770;28;20036;-61
2023/05/28 10:53:11;;;;;;;8.60;3.78;;;8.60;99.90;;;;;;5051739;28;20679;-61
2023/05/28 10:55:51;;;;;;;7.57;3.72;;;8.70;99.90;;;;;;5068574;28;20120;-61
2023/05/28 10:58:35;;;;;;;6.78;3.67;;;8.70;99.90;;;;;;5079802;28;20488;-62
2023/05/28 11:01:11;;;;;;;6.90;3.65;;;8.70;99.90;;;;;;5071993;28;20033;-61
2023/05/28 11:03:42;;;;;;;5.47;3.03;;;8.70;99.90;;;;;;5066949;28;20426;-53
2023/05/28 11:06:11;;;;;;;6.22;3.60;;;8.70;99.90;;;;;;5079170;28;20103;-62
2023/05/28 11:08:42;;;;;;;8.43;4.50;;;8.60;99.90;;;;;;5064961;28;20044;-61
2023/05/28 11:11:12;;;;;;;7.55;3.22;;;8.60;99.90;;;;;;5075703;28;20039;-61
2023/05/28 11:13:43;;;;;;;8.52;3.55;;;8.50;99.90;;;;;;5070722;28;20064;-61
2023/05/28 11:16:16;;;;;;;6.63;3.47;;;8.40;99.90;;;;;;5077771;28;20059;-61
2023/05/28 11:19:08;;;;;;;10.15;4.60;;;8.30;99.90;;;;;;5073592;28;20698;-61
2023/05/28 11:21:51;;;;;;;8.57;3.90;;;8.20;99.90;;;;;;5072991;28;20027;-61
2023/05/28 11:24:18;;;;;;;8.20;4.47;;;8.20;99.90;;;;;;5076702;28;20024;-61
2023/05/28 11:26:46;;;;;;;7.50;3.92;;;8.20;99.90;;;;;;5062293;28;20480;-61
2023/05/28 11:29:18;;;;;;;8.05;3.88;;;8.30;99.90;;;;;;5090311;28;20028;-61
2023/05/28 11:31:46;;;;;;;7.45;3.80;;;8.30;99.90;;;;;;5090502;28;20115;-61
2023/05/28 11:34:13;;;;;;;8.43;3.88;;;8.30;99.90;;;;;;5079191;28;20380;-60
2023/05/28 11:36:42;;;;;;;5.22;3.15;;;8.30;99.90;;;;;;5079779;28;20430;-60
2023/05/28 11:39:10;;;;;;;7.72;3.47;;;8.20;99.90;;;;;;5076829;28;20036;-61
2023/05/28 11:41:39;;;;;;;5.80;3.03;;;8.20;99.90;;;;;;5092771;28;20024;-61
2023/05/28 11:44:20;;;;;;;5.57;3.15;;;8.30;99.90;;;;;;5075904;28;20030;-61
2023/05/28 11:46:52;;;;;;;8.27;4.30;;;8.40;99.90;;;;;;5060947;28;20040;-61
2023/05/28 11:49:20;;;;;;;11.68;4.38;;;8.70;99.90;;;;;;5058912;28;20021;-61
2023/05/28 11:51:50;;;;;;;10.05;3.80;;;8.90;99.90;;;;;;5082031;28;20358;-61
2023/05/28 11:54:18;;;;;;;11.63;4.47;;;8.90;99.90;;;;;;5037011;28;20068;-60
2023/05/28 11:56:48;;;;;;;9.63;3.97;;;8.90;99.90;;;;;;5056699;28;20036;-61
2023/05/28 11:59:17;;;;;;;11.05;4.30;;;8.90;99.90;;;;;;5040788;28;20091;-61
2023/05/28 12:01:46;;;;;;;9.95;5.18;;;8.90;99.90;;;;;;5032791;28;20033;-62
2023/05/28 12:04:13;;;;;;;14.18;3.83;;;8.80;99.90;;;;;;5045726;28;20030;-60
2023/05/28 12:06:56;;;;;;;7.20;3.72;;;8.80;99.90;;;;;;5030697;28;20021;-63
2023/05/28 12:09:23;;;;;;;8.10;3.35;;;8.70;99.90;;;;;;5034808;28;20099;-60
2023/05/28 12:12:05;;;;;;;13.30;3.58;;;8.60;99.90;;;;;;5031391;28;20040;-62
2023/05/28 12:14:33;;;;;;;7.40;3.90;;;8.50;99.90;;;;;;5062974;28;20390;-61
2023/05/28 12:17:13;;;;;;;7.90;3.60;;;8.50;99.90;;;;;;5034284;28;20028;-60
2023/05/28 12:19:40;;;;;;;7.60;3.45;;;8.50;99.90;;;;;;5035973;28;20025;-61
2023/05/28 12:22:18;;;;;;;10.55;3.15;;;8.30;99.90;;;;;;5032853;28;20087;-60
2023/05/28 12:24:55;;;;;;;8.68;3.72;;;8.30;99.90;;;;;;5032493;28;20486;-60
2023/05/28 12:27:22;;;;;;;10.80;3.35;;;8.20;99.90;;;;;;5030746;28;20071;-60
2023/05/28 12:29:50;;;;;;;6.25;2.55;;;8.20;99.90;;;;;;5035540;28;20153;-62
2023/05/28 12:32:19;;;;;;;9.52;4.28;;;8.10;99.90;;;;;;5033998;28;20091;-62
2023/05/28 12:34:46;;;;;;;8.88;4.00;;;8.10;99.90;;;;;;5030262;28;20040;-62
2023/05/28 12:37:13;;;;;;;5.85;2.92;;;8.10;99.90;;;;;;5036794;28;20029;-61
2023/05/28 12:39:41;;;;;;;4.75;3.05;;;8.10;99.90;;;;;;5054038;28;20642;-61
2023/05/28 12:42:08;;;;;;;3.92;1.95;;;8.20;99.90;;;;;;5039829;28;20059;-61
2023/05/28 12:44:36;;;;;;;4.30;1.95;;;8.20;99.90;;;;;;5047707;28;20032;-61
2023/05/28 12:47:03;;;;;;;5.03;2.47;;;8.30;99.90;;;;;;5049008;28;20381;-61
2023/05/28 12:49:31;;;;;;;4.28;2.50;;;8.40;99.90;;;;;;5037861;28;20548;-61
2023/05/28 12:51:58;;;;;;;3.97;1.80;;;8.40;99.90;;;;;;5044784;28;20025;-61
2023/05/28 12:54:26;;;;;;;3.42;1.65;;;8.40;99.90;;;;;;5076962;28;20032;-61
2023/05/28 12:56:53;;;;;;;5.05;1.77;;;8.50;99.90;;;;;;5069895;28;20024;-61